createdAt,value
2019-02-05T05:58:23.105Z,13.22
2019-02-05T06:06:00.704Z,12.85
2019-02-05T06:08:32.674Z,12.15
2019-02-05T06:12:16.452Z,40.08
2019-02-05T06:14:47.635Z,15.58
2019-02-05T06:17:18.576Z,16.23
2019-02-05T06:19:49.426Z,16.45
2019-02-05T06:22:20.141Z,15.25
2019-02-05T06:24:51.230Z,16.42
2019-02-05T06:27:22.190Z,16.10
2019-02-05T06:29:53.353Z,15.93
2019-02-05T06:32:24.276Z,15.43
2019-02-05T06:34:55.370Z,15.40
2019-02-05T06:37:26.312Z,15.43
2019-02-05T06:39:57.025Z,15.60
2019-02-05T06:42:27.777Z,14.07
2019-02-05T06:44:58.550Z,15.40
2019-02-05T06:47:29.429Z,15.10
2019-02-05T06:50:00.318Z,13.43
2019-02-05T06:52:31.103Z,16.00
2019-02-05T06:55:01.829Z,15.90
2019-02-05T06:57:33.114Z,15.63
2019-02-05T07:00:06.079Z,15.30
2019-02-05T07:02:36.858Z,36.97
2019-02-05T07:08:34.009Z,16.30
2019-02-05T07:11:05.267Z,16.77
2019-02-05T07:43:11.460Z,17.85
2019-02-05T07:45:42.380Z,18.80
2019-02-05T07:48:13.327Z,17.60
2019-02-05T07:50:44.992Z,20.17
2019-02-05T07:53:15.932Z,16.47
2019-02-05T07:55:46.827Z,17.00
2019-02-05T07:58:17.908Z,16.60
2019-02-05T08:00:48.873Z,17.97
2019-02-05T08:03:19.803Z,21.57
2019-02-05T08:05:50.731Z,17.77
2019-02-05T08:08:21.934Z,17.83
2019-02-05T08:10:52.837Z,17.47
2019-02-05T08:13:23.823Z,17.13
2019-02-05T08:15:54.725Z,18.20
2019-02-05T08:18:25.674Z,16.83
2019-02-05T08:20:56.579Z,17.30
2019-02-05T08:23:27.857Z,16.33
2019-02-05T08:25:58.762Z,17.23
2019-02-05T08:28:40.421Z,15.73
2019-02-05T08:31:02.306Z,16.57
2019-02-05T08:33:33.446Z,19.63
2019-02-05T08:36:04.858Z,24.13
2019-02-05T08:38:35.783Z,20.20
2019-02-05T08:41:06.692Z,20.37
2019-02-05T08:43:39.246Z,20.27
2019-02-05T08:46:10.147Z,19.47
2019-02-05T08:48:41.129Z,15.60
2019-02-05T08:51:12.311Z,16.20
2019-02-05T08:53:43.243Z,17.47
2019-02-05T08:56:14.143Z,18.87
2019-02-05T08:58:45.213Z,18.30
2019-02-05T09:01:16.184Z,21.57
2019-02-05T09:03:47.123Z,13.33
2019-02-05T09:06:18.300Z,17.27
2019-02-05T09:08:49.234Z,20.80
2019-02-05T09:11:20.144Z,18.80
2019-02-05T09:13:51.384Z,19.87
2019-02-05T09:16:26.189Z,20.23
2019-02-05T09:18:57.517Z,15.27
2019-02-05T09:21:28.528Z,18.43
2019-02-05T09:24:00.298Z,18.97
2019-02-05T09:26:31.248Z,19.27
2019-02-05T09:29:02.360Z,22.57
2019-02-05T09:31:33.292Z,16.40
2019-02-05T09:34:04.822Z,19.57
2019-02-05T09:36:35.795Z,19.97
2019-02-05T09:39:08.155Z,14.37
2019-02-05T09:41:39.096Z,16.80
2019-02-05T09:44:10.097Z,17.30
2019-02-05T09:46:40.995Z,16.23
2019-02-05T09:49:11.933Z,18.30
2019-02-05T09:51:42.945Z,18.10
2019-02-05T09:54:13.865Z,18.67
2019-02-05T09:57:27.986Z,16.20
2019-02-05T10:00:23.235Z,17.23
2019-02-05T10:02:55.285Z,18.70
2019-02-05T10:05:28.679Z,23.40
2019-02-05T10:07:59.622Z,22.47
2019-02-05T10:10:30.558Z,19.83
2019-02-05T10:13:01.500Z,19.20
2019-02-05T10:15:34.828Z,23.33
2019-02-05T10:18:07.735Z,19.93
2019-02-05T10:20:38.683Z,23.50
2019-02-05T10:23:10.407Z,20.00
2019-02-05T10:25:41.424Z,22.57
2019-02-05T10:28:12.328Z,26.17
2019-02-05T10:30:44.612Z,26.03
2019-02-05T10:33:15.521Z,23.27
2019-02-05T10:35:46.552Z,20.30
2019-02-05T10:38:17.462Z,19.93
2019-02-05T10:40:48.396Z,17.97
2019-02-05T10:43:19.410Z,20.13
2019-02-05T10:45:51.084Z,27.30
2019-02-05T10:48:22.007Z,22.77
2019-02-05T10:50:53.053Z,18.97
2019-02-05T10:53:23.951Z,17.40
2019-02-05T10:55:54.885Z,28.00
2019-02-05T10:58:25.792Z,30.27
2019-02-05T11:00:57.109Z,45.83
2019-02-05T11:03:28.011Z,94.43
2019-02-05T11:05:58.962Z,111.07
2019-02-05T11:08:30.016Z,37.60
2019-02-05T11:11:01.024Z,23.47
2019-02-05T11:13:32.211Z,37.27
2019-02-05T11:16:03.246Z,25.03
2019-02-05T11:18:34.150Z,22.07
2019-02-05T11:21:05.093Z,17.27
2019-02-05T11:23:36.012Z,16.83
2019-02-05T11:26:07.013Z,20.10
2019-02-05T11:28:38.213Z,19.97
2019-02-05T11:31:09.151Z,18.83
2019-02-05T11:33:40.064Z,17.00
2019-02-05T11:36:11.032Z,24.60
2019-02-05T11:38:41.989Z,28.50
2019-02-05T11:41:13.726Z,29.43
2019-02-05T11:43:44.804Z,18.43
2019-02-05T11:46:15.752Z,25.70
2019-02-05T11:48:46.724Z,33.33
2019-02-05T11:51:17.656Z,18.87
2019-02-05T11:53:48.562Z,22.37
2019-02-05T11:56:19.514Z,23.97
2019-02-05T11:58:50.417Z,24.60
2019-02-05T12:01:21.529Z,16.53
2019-02-05T12:03:52.442Z,15.73
2019-02-05T12:06:32.030Z,18.17
2019-02-05T12:09:06.030Z,19.43
2019-02-05T12:11:36.966Z,15.50
2019-02-05T12:14:07.908Z,20.97
2019-02-05T12:16:38.915Z,16.27
2019-02-05T12:19:09.858Z,49.00
2019-02-05T12:21:40.841Z,44.47
2019-02-05T12:24:11.948Z,27.90
2019-02-05T12:26:42.904Z,16.20
2019-02-05T12:29:13.907Z,15.50
2019-02-05T12:31:45.000Z,18.40
2019-02-05T12:34:15.934Z,16.57
2019-02-05T12:36:46.922Z,20.07
2019-02-05T12:39:18.650Z,19.77
2019-02-05T12:41:49.686Z,22.40
2019-02-05T12:44:20.585Z,21.70
2019-02-05T12:46:51.566Z,18.60
2019-02-05T12:49:22.539Z,17.17
2019-02-05T12:51:53.561Z,19.23
2019-02-05T12:54:24.471Z,19.17
2019-02-05T12:56:55.398Z,22.63
2019-02-05T12:59:26.306Z,18.50
2019-02-05T13:01:57.673Z,16.43
2019-02-05T13:04:28.675Z,34.83
2019-02-05T13:06:59.789Z,21.33
2019-02-05T13:09:30.699Z,17.67
2019-02-05T13:12:01.700Z,19.83
2019-02-05T13:14:32.607Z,39.47
2019-02-05T13:17:03.572Z,28.23
2019-02-05T13:19:34.762Z,30.00
2019-02-05T13:22:05.690Z,19.33
2019-02-05T13:24:36.591Z,46.97
2019-02-05T13:27:07.528Z,44.97
2019-02-05T13:29:38.427Z,39.20
2019-02-05T13:32:09.553Z,48.47
2019-02-05T13:34:40.454Z,57.43
2019-02-05T13:37:11.529Z,100.50
2019-02-05T13:39:42.443Z,60.63
2019-02-05T13:42:13.377Z,43.87
2019-02-05T13:44:44.764Z,69.87
2019-02-05T13:47:15.743Z,88.87
2019-02-05T13:49:46.660Z,84.10
2019-02-05T13:52:17.599Z,101.17
2019-02-05T13:54:48.511Z,57.13
2019-02-05T13:57:19.452Z,25.10
2019-02-05T13:59:50.359Z,46.17
2019-02-05T14:02:21.316Z,48.13
2019-02-05T14:04:52.218Z,21.10
2019-02-05T14:07:23.228Z,40.27
2019-02-05T14:09:54.121Z,38.00
2019-02-05T14:12:25.333Z,46.97
2019-02-05T14:14:56.251Z,61.83
2019-02-05T14:17:27.254Z,83.97
2019-02-05T14:19:58.158Z,34.33
2019-02-05T14:22:29.093Z,26.73
2019-02-05T14:25:00.477Z,29.40
2019-02-05T14:27:31.416Z,30.70
2019-02-05T14:30:02.380Z,22.50
2019-02-05T14:32:33.378Z,23.70
2019-02-05T14:35:06.476Z,35.57
2019-02-05T14:37:37.418Z,143.50
2019-02-05T14:40:11.311Z,37.30
2019-02-05T14:42:43.217Z,53.67
2019-02-05T14:45:15.103Z,34.93
2019-02-05T14:47:46.057Z,53.70
2019-02-05T14:50:25.504Z,38.10
2019-02-05T14:52:56.428Z,41.40
2019-02-05T14:55:27.457Z,41.93
2019-02-05T14:57:58.392Z,25.37
2019-02-05T15:00:35.483Z,53.67
2019-02-05T15:03:08.822Z,47.13
2019-02-05T15:05:40.325Z,39.17
2019-02-05T15:08:12.160Z,34.33
2019-02-05T15:10:43.055Z,29.60
2019-02-05T15:13:16.095Z,24.83
2019-02-05T15:15:46.809Z,20.47
2019-02-05T15:18:17.778Z,19.17
2019-02-05T15:20:49.179Z,30.63
2019-02-05T15:23:20.508Z,26.67
2019-02-05T15:25:51.412Z,33.50
2019-02-05T15:28:22.350Z,75.17
2019-02-05T15:30:53.334Z,72.20
2019-02-05T15:33:26.098Z,36.83
2019-02-05T15:35:58.641Z,38.53
2019-02-05T15:38:30.096Z,21.50
2019-02-05T15:41:01.023Z,30.40
2019-02-05T15:43:31.972Z,39.97
2019-02-05T15:46:02.999Z,33.97
2019-02-05T15:48:34.125Z,28.23
2019-02-05T15:51:05.158Z,31.50
2019-02-05T15:53:36.121Z,31.13
2019-02-05T15:56:07.198Z,37.33
2019-02-05T15:58:38.197Z,41.67
2019-02-05T16:01:09.130Z,35.40
2019-02-05T16:03:40.190Z,48.10
2019-02-05T16:06:11.097Z,25.67
2019-02-05T16:08:42.107Z,19.77
2019-02-05T16:11:13.008Z,17.00
2019-02-05T16:13:43.931Z,17.17
2019-02-05T16:16:14.939Z,22.37
2019-02-05T16:18:46.273Z,24.43
2019-02-05T16:21:17.183Z,17.03
2019-02-05T16:23:48.116Z,18.07
2019-02-05T16:26:19.024Z,66.70
2019-02-05T16:28:49.969Z,70.30
2019-02-05T16:31:20.853Z,57.87
2019-02-05T16:33:51.828Z,38.47
2019-02-05T16:36:22.728Z,32.60
2019-02-05T16:38:53.692Z,33.53
2019-02-05T16:41:24.607Z,25.43
2019-02-05T16:43:55.534Z,23.63
2019-02-05T16:46:26.454Z,25.77
2019-02-05T16:48:57.497Z,31.17
2019-02-05T16:51:28.396Z,32.53
2019-02-05T16:53:59.333Z,29.73
2019-02-05T16:56:30.243Z,51.37
2019-02-05T16:59:01.446Z,33.43
2019-02-05T17:01:32.360Z,39.77
2019-02-05T17:04:03.312Z,39.37
2019-02-05T17:06:34.219Z,35.80
2019-02-05T17:09:08.062Z,19.83
2019-02-05T17:11:39.234Z,40.57
2019-02-05T17:14:10.168Z,28.97
2019-02-05T17:16:41.140Z,21.63
2019-02-05T17:19:12.098Z,22.93
2019-02-05T17:21:43.014Z,46.77
2019-02-05T17:24:14.405Z,21.40
2019-02-05T17:26:45.302Z,27.50
2019-02-05T17:29:16.246Z,35.57
2019-02-05T17:31:47.160Z,38.40
2019-02-05T17:34:18.102Z,47.07
2019-02-05T17:36:49.115Z,44.60
2019-02-05T17:39:20.251Z,34.93
2019-02-05T17:41:51.321Z,28.30
2019-02-05T17:44:22.330Z,35.03
2019-02-05T17:46:53.318Z,23.40
2019-02-05T17:49:24.380Z,29.83
2019-02-05T17:51:55.661Z,15.63
2019-02-05T17:54:26.594Z,16.77
2019-02-05T17:56:58.494Z,15.63
2019-02-05T17:59:29.458Z,15.13
2019-02-05T18:02:00.643Z,16.87
2019-02-05T18:04:32.027Z,15.33
2019-02-05T18:07:06.599Z,17.60
2019-02-05T18:09:37.549Z,16.77
2019-02-05T18:12:08.451Z,17.60
2019-02-05T18:14:39.376Z,19.07
2019-02-05T18:17:10.620Z,19.83
2019-02-05T18:19:41.680Z,29.70
2019-02-05T18:22:12.590Z,41.53
2019-02-05T18:24:43.537Z,90.40
2019-02-05T18:27:14.446Z,87.83
2019-02-05T18:29:45.942Z,56.07
2019-02-05T18:32:16.846Z,40.83
2019-02-05T18:34:47.804Z,30.17
2019-02-05T18:37:18.707Z,23.97
2019-02-05T18:39:50.109Z,33.37
2019-02-05T18:42:21.026Z,68.00
2019-02-05T18:44:51.957Z,22.83
2019-02-05T18:47:22.868Z,21.83
2019-02-05T18:49:54.275Z,32.17
2019-02-05T18:52:25.254Z,28.70
2019-02-05T18:54:56.181Z,41.03
2019-02-05T18:57:27.163Z,34.80
2019-02-05T19:03:43.397Z,28.50
2019-02-05T19:06:14.336Z,23.87
2019-02-05T19:08:45.243Z,23.03
2019-02-05T19:11:16.173Z,23.27
2019-02-05T19:13:47.089Z,21.67
2019-02-05T19:16:18.022Z,21.53
2019-02-05T19:18:48.932Z,24.67
2019-02-05T19:21:19.873Z,17.33
2019-02-05T19:23:52.700Z,18.83
2019-02-05T19:26:24.096Z,20.37
2019-02-05T19:28:55.065Z,18.40
2019-02-05T19:31:27.771Z,19.30
2019-02-05T19:33:58.680Z,17.37
2019-02-05T19:36:30.033Z,16.80
2019-02-05T19:39:00.936Z,22.83
2019-02-05T19:41:31.858Z,19.83
2019-02-05T19:44:02.774Z,23.07
2019-02-05T19:46:41.508Z,26.70
2019-02-05T19:49:23.288Z,16.73
2019-02-05T19:51:54.226Z,17.23
2019-02-05T19:54:25.421Z,21.37
2019-02-05T19:56:56.342Z,18.53
2019-02-05T19:59:28.454Z,26.67
2019-02-05T20:01:59.446Z,20.27
2019-02-05T20:04:30.371Z,22.83
2019-02-05T20:07:01.336Z,20.30
2019-02-05T20:09:32.243Z,18.30
2019-02-05T20:12:03.186Z,22.53
2019-02-05T20:14:34.086Z,38.30
2019-02-05T20:17:05.604Z,30.83
2019-02-05T20:19:36.528Z,28.73
2019-02-05T20:22:07.485Z,25.47
2019-02-05T20:24:56.248Z,26.07
2019-02-05T20:27:35.484Z,21.17
2019-02-05T20:30:09.430Z,22.60
2019-02-05T20:32:40.369Z,24.50
2019-02-05T20:35:11.387Z,32.17
2019-02-05T20:37:42.442Z,20.40
2019-02-05T20:40:27.697Z,22.47
2019-02-05T20:42:58.666Z,23.63
2019-02-05T20:45:29.698Z,25.77
2019-02-05T20:48:00.659Z,21.27
2019-02-05T20:50:31.674Z,22.57
2019-02-05T20:53:13.081Z,20.57
2019-02-05T20:55:35.284Z,21.67
2019-02-05T20:58:06.605Z,22.17
2019-02-05T21:00:37.522Z,24.53
2019-02-05T21:03:08.461Z,20.23
2019-02-05T21:05:39.637Z,20.93
2019-02-05T21:08:10.601Z,21.27
2019-02-05T21:10:43.568Z,27.70
2019-02-05T21:13:14.525Z,19.97
2019-02-05T21:15:45.433Z,27.57
2019-02-05T21:18:17.519Z,15.83
2019-02-05T21:20:48.725Z,15.37
2019-02-05T21:23:20.113Z,21.00
2019-02-05T21:25:51.030Z,18.83
2019-02-05T21:28:22.017Z,18.23
2019-02-05T21:30:52.921Z,18.83
2019-02-05T21:33:24.139Z,15.87
2019-02-05T21:35:55.107Z,17.73
2019-02-05T21:38:26.065Z,16.03
2019-02-05T21:40:56.966Z,14.53
2019-02-05T21:43:27.914Z,18.40
2019-02-05T21:46:00.906Z,21.33
2019-02-05T21:48:31.459Z,16.03
2019-02-05T21:51:05.429Z,18.20
2019-02-05T21:53:36.403Z,14.63
2019-02-05T21:56:07.303Z,16.50
2019-02-05T21:58:38.254Z,13.70
2019-02-05T22:01:09.673Z,16.00
2019-02-05T22:03:40.664Z,15.90
2019-02-05T22:06:11.572Z,17.33
2019-02-05T22:08:42.566Z,15.40
2019-02-05T22:11:13.520Z,13.70
2019-02-05T22:13:44.474Z,13.90
2019-02-05T22:16:15.385Z,16.33
2019-02-05T22:18:46.324Z,12.87
2019-02-05T22:21:17.715Z,13.27
2019-02-05T22:23:48.654Z,11.57
2019-02-05T22:26:19.559Z,15.73
2019-02-05T22:28:50.493Z,11.20
2019-02-05T22:31:25.807Z,12.37
2019-02-05T22:33:57.098Z,12.23
2019-02-05T22:36:43.254Z,11.03
2019-02-05T22:39:15.684Z,12.13
2019-02-05T22:45:31.922Z,12.97
2019-02-05T22:48:02.815Z,13.47
2019-02-05T22:50:35.549Z,15.13
2019-02-05T22:53:08.667Z,15.47
2019-02-05T22:55:39.626Z,15.27
2019-02-05T22:58:10.603Z,15.80
2019-02-05T23:00:51.433Z,17.97
2019-02-05T23:03:32.215Z,16.70
2019-02-05T23:06:21.616Z,16.13
2019-02-05T23:08:53.427Z,15.17
2019-02-05T23:11:32.867Z,14.23
2019-02-05T23:14:03.851Z,14.03
2019-02-05T23:16:34.795Z,14.50
2019-02-05T23:22:53.547Z,13.87
2019-02-05T23:25:25.034Z,12.53
2019-02-05T23:27:56.021Z,12.90
2019-02-05T23:30:27.016Z,13.10
2019-02-05T23:32:57.975Z,12.90
2019-02-05T23:35:29.161Z,13.47
2019-02-05T23:38:00.245Z,14.17
2019-02-05T23:40:33.026Z,12.10
2019-02-05T23:46:01.928Z,10.87
2019-02-05T23:48:32.971Z,10.53
2019-02-05T23:51:04.092Z,10.80
2019-02-05T23:53:35.080Z,10.57
2019-02-05T23:56:25.896Z,10.60
2019-02-05T23:58:48.791Z,11.27
